Aviation Digital Data Service (ADDS)

Output produced by METARs form (1709 UTC 23 October 2014)
found at http://aviationweather.gov/adds/metars/
 
KDCA 231459Z 2315/2412 32016G24KT P6SM SCT040 BKN070 
     FM232200 32012KT P6SM SCT090